Terminal Aerodrome Forecast
Issued by NWS Blacksburg, VA

Home | Current Version | Previous Version | Text Only | Print | Product List | Glossary On
Versions: 1 2 3 4 5 6 7 8 9 10 11 12 13 14 15 16 17 18 19 20 21 22 23 24 25 26 27 28 29 30 31 32 33 34 35 36 37 38 39
000
FTUS41 KRNK 260520
TAFROA
TAF
KROA 260520Z 2606/2706 34004KT P6SM -RA OVC060
     FM260800 01005KT 5SM -RA BKN025 OVC040
     FM261100 34006KT 3SM -RASN OVC012
      TEMPO 2613/2617 1 1/2SM -SN OVC007
     FM262000 31010KT 6SM BR OVC015
     FM270000 27004KT P6SM SCT015 OVC050=

USA.gov is the U.S. government's official web portal to all federal, state and local government web resources and services.